Time;durP1;ratioP1;P1;durP2;ratioP2;P2;SDS_P1;SDS_P2;PMS_P1;PMS_P2;Temp;Humidity;BMP_temperature;BMP_pressure;BME280_temperature;BME280_humidity;BME280_pressure;Samples;Min_cycle;Max_cycle;Signal;HPM_P1;HPM_P2
2023/03/11 00:00:43;;;;;;;6.35;2.33;;;-2.20;99.90;;;;;;4961028;28;20058;-64
2023/03/11 00:03:15;;;;;;;2.95;2.22;;;-2.10;99.90;;;;;;4960822;28;20147;-64
2023/03/11 00:05:43;;;;;;;3.92;2.30;;;-2.10;99.90;;;;;;4960409;28;20446;-64
2023/03/11 00:08:16;;;;;;;1.70;1.50;;;-2.10;99.90;;;;;;4959217;28;20046;-66
2023/03/11 00:10:45;;;;;;;1.88;1.75;;;-2.10;99.90;;;;;;4962694;28;20057;-63
2023/03/11 00:13:14;;;;;;;4.38;1.80;;;-2.10;99.90;;;;;;4963870;28;20055;-67
2023/03/11 00:15:43;;;;;;;3.63;2.08;;;-2.10;99.90;;;;;;4963537;28;20082;-64
2023/03/11 00:18:10;;;;;;;5.75;1.98;;;-2.10;99.90;;;;;;4961287;28;20054;-63
2023/03/11 00:20:41;;;;;;;3.47;2.00;;;-2.00;99.90;;;;;;4963096;28;20568;-64
2023/03/11 00:23:10;;;;;;;7.00;1.85;;;-2.00;99.90;;;;;;4960490;28;20058;-64
2023/03/11 00:25:37;;;;;;;3.83;2.25;;;-2.00;99.90;;;;;;4960907;28;20051;-64
2023/03/11 00:28:09;;;;;;;3.97;2.25;;;-2.00;99.90;;;;;;4958954;28;20150;-65
2023/03/11 00:30:38;;;;;;;2.50;1.75;;;-2.10;99.90;;;;;;4960844;28;20054;-65
2023/03/11 00:33:06;;;;;;;2.22;1.50;;;-2.10;99.90;;;;;;4962642;28;20147;-64
2023/03/11 00:35:33;;;;;;;3.80;1.60;;;-2.10;99.90;;;;;;4962481;28;20057;-64
2023/03/11 00:38:06;;;;;;;6.70;1.92;;;-2.10;99.90;;;;;;4962945;28;20789;-63
2023/03/11 00:40:35;;;;;;;3.15;1.63;;;-2.10;99.90;;;;;;4961829;28;20057;-64
2023/03/11 00:43:02;;;;;;;6.28;1.92;;;-2.10;99.90;;;;;;4963147;28;20088;-64
2023/03/11 00:45:30;;;;;;;5.57;1.80;;;-2.10;99.90;;;;;;4963009;28;20065;-64
2023/03/11 00:47:57;;;;;;;3.53;1.98;;;-2.10;99.90;;;;;;4962196;28;20146;-64
2023/03/11 00:50:30;;;;;;;6.25;1.73;;;-2.10;99.90;;;;;;4960232;28;20600;-65
2023/03/11 00:52:58;;;;;;;9.10;2.60;;;-2.20;99.90;;;;;;4962465;28;20567;-63
2023/03/11 00:55:28;;;;;;;3.20;1.67;;;-2.20;99.90;;;;;;4963449;28;20182;-64
2023/03/11 00:57:58;;;;;;;6.13;2.28;;;-2.20;99.90;;;;;;4961110;28;20629;-65
2023/03/11 01:00:30;;;;;;;2.97;1.30;;;-2.20;99.90;;;;;;4960560;28;20519;-64
2023/03/11 01:02:58;;;;;;;3.47;1.83;;;-2.20;99.90;;;;;;4961840;28;20162;-65
2023/03/11 01:05:27;;;;;;;3.63;1.52;;;-2.30;99.90;;;;;;4960803;28;20050;-65
2023/03/11 01:07:54;;;;;;;1.63;1.52;;;-2.20;99.90;;;;;;4962429;28;20055;-64
2023/03/11 01:10:21;;;;;;;2.13;1.45;;;-2.30;99.90;;;;;;4960105;28;22508;-64
2023/03/11 01:12:50;;;;;;;5.40;3.38;;;-2.30;99.90;;;;;;4962212;28;20394;-65
2023/03/11 01:15:24;;;;;;;1.60;1.48;;;-2.30;99.90;;;;;;4961756;28;20416;-65
2023/03/11 01:17:51;;;;;;;6.18;1.50;;;-2.30;99.90;;;;;;4961997;28;20046;-64
2023/03/11 01:20:18;;;;;;;3.13;1.65;;;-2.30;99.90;;;;;;4973601;28;20051;-63
2023/03/11 01:22:45;;;;;;;3.65;1.60;;;-2.30;99.90;;;;;;4960022;28;20658;-66
2023/03/11 01:25:14;;;;;;;8.07;1.50;;;-2.30;99.90;;;;;;4961005;28;20482;-66
2023/03/11 01:27:41;;;;;;;5.55;1.75;;;-2.20;99.90;;;;;;4962657;28;20217;-66
2023/03/11 01:30:11;;;;;;;5.45;2.03;;;-2.20;99.90;;;;;;4960355;28;20042;-66
2023/03/11 01:32:38;;;;;;;4.75;1.83;;;-2.20;99.90;;;;;;4961085;28;20137;-64
2023/03/11 01:35:06;;;;;;;3.45;2.60;;;-2.20;99.90;;;;;;4959053;28;20051;-63
2023/03/11 01:37:33;;;;;;;4.13;2.00;;;-2.20;99.90;;;;;;4960586;28;20053;-64
2023/03/11 01:39:59;;;;;;;2.58;2.00;;;-2.20;99.90;;;;;;4960362;28;20104;-66
2023/03/11 01:42:26;;;;;;;6.78;2.47;;;-2.20;99.90;;;;;;4958282;28;20061;-63
2023/03/11 01:44:54;;;;;;;3.75;2.38;;;-2.20;99.90;;;;;;4961163;28;20042;-65
2023/03/11 01:47:35;;;;;;;2.33;1.65;;;-2.20;99.90;;;;;;4991910;28;20224;-64
2023/03/11 01:50:06;;;;;;;3.38;2.28;;;-2.20;99.90;;;;;;4960791;28;20078;-63
2023/03/11 01:52:34;;;;;;;3.25;2.00;;;-2.20;99.90;;;;;;4959193;28;20055;-64
2023/03/11 01:55:01;;;;;;;11.93;2.88;;;-2.20;99.90;;;;;;4992032;28;20054;-66
2023/03/11 01:57:28;;;;;;;5.05;1.92;;;-2.20;99.90;;;;;;4992603;28;20082;-65
2023/03/11 01:59:59;;;;;;;4.97;2.17;;;-2.20;99.90;;;;;;4960832;28;20051;-66
2023/03/11 02:02:33;;;;;;;4.07;2.80;;;-2.20;99.90;;;;;;4957677;28;20530;-64
2023/03/11 02:05:02;;;;;;;5.07;2.00;;;-2.20;99.90;;;;;;4992632;28;20082;-64
2023/03/11 02:07:29;;;;;;;3.72;2.50;;;-2.20;99.90;;;;;;4956706;28;20081;-65
2023/03/11 02:09:56;;;;;;;5.65;2.50;;;-2.20;99.90;;;;;;4961041;28;20054;-64
2023/03/11 02:12:24;;;;;;;3.65;1.83;;;-2.20;99.90;;;;;;4974023;28;20054;-64
2023/03/11 02:14:53;;;;;;;4.85;2.28;;;-2.20;99.90;;;;;;4960640;28;20050;-63
2023/03/11 02:17:21;;;;;;;5.10;2.50;;;-2.20;99.90;;;;;;4959055;28;20083;-65
2023/03/11 02:20:01;;;;;;;8.55;2.42;;;-2.20;99.90;;;;;;4959414;28;20681;-69
2023/03/11 02:22:32;;;;;;;6.43;2.35;;;-2.20;99.90;;;;;;4957414;28;20086;-66
2023/03/11 02:25:31;;;;;;;6.85;2.05;;;-2.20;99.90;;;;;;4958299;28;20137;-66
2023/03/11 02:27:59;;;;;;;3.28;2.03;;;-2.20;99.90;;;;;;4960501;28;20217;-66
2023/03/11 02:30:30;;;;;;;4.53;1.85;;;-2.20;99.90;;;;;;4958248;28;20055;-65
2023/03/11 02:32:58;;;;;;;5.03;2.30;;;-2.20;99.90;;;;;;4990335;28;20062;-64
2023/03/11 02:35:25;;;;;;;4.50;1.80;;;-2.20;99.90;;;;;;4960901;28;20053;-65
2023/03/11 02:37:54;;;;;;;5.40;2.67;;;-2.20;99.90;;;;;;4960064;28;20153;-66
2023/03/11 02:40:26;;;;;;;4.25;2.30;;;-2.20;99.90;;;;;;4958074;28;20057;-66
2023/03/11 02:42:58;;;;;;;9.35;2.50;;;-2.20;99.90;;;;;;4958888;28;20039;-65
2023/03/11 02:45:26;;;;;;;5.70;2.28;;;-2.20;99.90;;;;;;4959998;28;20049;-66
2023/03/11 02:47:55;;;;;;;7.03;2.20;;;-2.20;99.90;;;;;;4960103;28;20057;-66
2023/03/11 02:50:24;;;;;;;3.70;2.65;;;-2.10;99.90;;;;;;4959848;28;20081;-64
2023/03/11 02:52:51;;;;;;;9.18;3.08;;;-2.10;99.90;;;;;;4990368;28;20078;-64
2023/03/11 02:55:21;;;;;;;3.70;2.40;;;-2.10;99.90;;;;;;4959837;28;20188;-64
2023/03/11 02:57:48;;;;;;;5.28;2.80;;;-2.10;99.90;;;;;;4958126;28;20046;-66
2023/03/11 03:00:17;;;;;;;4.15;2.20;;;-2.10;99.90;;;;;;4957883;28;20137;-63
2023/03/11 03:02:55;;;;;;;;;;;-2.10;99.90;;;;;;4958484;28;20063;-62
2023/03/11 03:05:24;;;;;;;3.55;2.00;;;-2.10;99.90;;;;;;4960870;28;19933;-65
2023/03/11 03:07:51;;;;;;;2.60;2.00;;;-2.10;99.90;;;;;;4990947;28;20508;-66
2023/03/11 03:10:21;;;;;;;2.80;1.98;;;-2.10;99.90;;;;;;4959105;28;20052;-64
2023/03/11 03:12:48;;;;;;;3.90;3.30;;;-2.10;99.90;;;;;;4958141;28;20141;-64
2023/03/11 03:15:15;;;;;;;5.97;2.13;;;-2.10;99.90;;;;;;4955780;28;20575;-66
2023/03/11 03:17:44;;;;;;;5.00;2.88;;;-2.00;99.90;;;;;;4987927;28;20050;-66
2023/03/11 03:20:13;;;;;;;2.88;2.22;;;-2.10;99.90;;;;;;4956758;28;20523;-66
2023/03/11 03:22:44;;;;;;;3.60;2.60;;;-2.00;99.90;;;;;;4990225;28;20046;-64
2023/03/11 03:25:14;;;;;;;3.35;2.10;;;-2.00;99.90;;;;;;4943182;28;20055;-66
2023/03/11 03:27:41;;;;;;;3.42;2.28;;;-2.00;99.90;;;;;;4960366;28;20132;-64
2023/03/11 03:30:09;;;;;;;3.92;2.25;;;-2.00;99.90;;;;;;4957914;28;20481;-65
2023/03/11 03:32:37;;;;;;;3.55;2.55;;;-2.00;99.90;;;;;;4958546;28;20050;-65
2023/03/11 03:35:07;;;;;;;3.13;2.10;;;-2.00;99.90;;;;;;4920267;28;20052;-65
2023/03/11 03:37:59;;;;;;;2.05;1.85;;;-2.00;99.90;;;;;;4920671;28;20094;-63
2023/03/11 03:40:26;;;;;;;4.72;2.20;;;-2.00;99.90;;;;;;4949852;28;20059;-65
2023/03/11 03:42:55;;;;;;;4.72;2.70;;;-2.00;99.90;;;;;;4921545;28;20055;-63
2023/03/11 03:45:23;;;;;;;6.68;4.80;;;-2.00;99.90;;;;;;4920996;28;20138;-65
2023/03/11 03:47:52;;;;;;;6.10;3.40;;;-2.10;99.90;;;;;;4923348;28;20129;-65
2023/03/11 03:50:20;;;;;;;5.63;3.50;;;-2.00;99.90;;;;;;4922643;28;20050;-66
2023/03/11 03:52:49;;;;;;;8.93;3.50;;;-2.00;99.90;;;;;;4923861;28;20936;-65
2023/03/11 03:55:16;;;;;;;7.88;3.15;;;-2.00;99.90;;;;;;4956828;28;20490;-64
2023/03/11 03:57:43;;;;;;;9.05;3.92;;;-2.00;99.90;;;;;;4923043;28;20112;-65
2023/03/11 04:00:12;;;;;;;7.97;2.80;;;-2.00;99.90;;;;;;4922480;28;20044;-65
2023/03/11 04:02:40;;;;;;;4.90;2.85;;;-2.00;99.90;;;;;;4923172;28;20044;-66
2023/03/11 04:05:15;;;;;;;7.18;2.88;;;-2.00;99.90;;;;;;4910025;28;20111;-66
2023/03/11 04:07:43;;;;;;;3.35;2.65;;;-2.00;99.90;;;;;;4933435;28;20166;-64
2023/03/11 04:10:13;;;;;;;4.03;2.13;;;-2.00;99.90;;;;;;4922485;28;20059;-63
2023/03/11 04:12:41;;;;;;;3.53;2.45;;;-1.90;99.90;;;;;;4937445;28;20433;-66
2023/03/11 04:15:08;;;;;;;6.05;2.65;;;-1.90;99.90;;;;;;4955700;28;20050;-64
2023/03/11 04:17:37;;;;;;;4.65;2.35;;;-1.90;99.90;;;;;;4953717;28;20154;-65
2023/03/11 04:20:09;;;;;;;5.68;3.88;;;-1.90;99.90;;;;;;4921601;28;20059;-66
2023/03/11 04:22:36;;;;;;;2.20;1.65;;;-1.90;99.90;;;;;;4923378;28;20123;-64
2023/03/11 04:25:04;;;;;;;5.25;1.70;;;-1.90;99.90;;;;;;4923011;28;20059;-64
2023/03/11 04:27:32;;;;;;;2.60;2.30;;;-1.80;99.90;;;;;;4955845;28;20059;-65
2023/03/11 04:30:01;;;;;;;2.95;1.63;;;-1.80;99.90;;;;;;4954447;28;20109;-66
2023/03/11 04:32:29;;;;;;;3.28;1.95;;;-1.80;99.90;;;;;;4921561;28;21424;-64
2023/03/11 04:34:56;;;;;;;3.97;1.92;;;-1.80;99.90;;;;;;4959349;28;20071;-65
2023/03/11 04:37:27;;;;;;;3.20;2.17;;;-1.80;99.90;;;;;;4961594;28;20560;-64
2023/03/11 04:39:54;;;;;;;5.20;2.42;;;-1.80;99.90;;;;;;4961650;28;20053;-67
2023/03/11 04:42:21;;;;;;;4.55;1.67;;;-1.80;99.90;;;;;;4960248;28;20051;-65
2023/03/11 04:44:48;;;;;;;2.75;2.08;;;-1.80;99.90;;;;;;4993887;28;20608;-64
2023/03/11 04:47:15;;;;;;;2.65;1.40;;;-1.80;99.90;;;;;;4960944;28;20109;-64
2023/03/11 04:49:43;;;;;;;3.38;2.33;;;-1.80;99.90;;;;;;4960909;28;20046;-66
2023/03/11 04:52:11;;;;;;;2.58;1.90;;;-1.70;99.90;;;;;;4959019;28;20528;-64
2023/03/11 04:54:38;;;;;;;3.45;1.80;;;-1.80;99.90;;;;;;4962023;28;20094;-64
2023/03/11 04:57:05;;;;;;;3.55;1.92;;;-1.70;99.90;;;;;;4961059;28;20051;-65
2023/03/11 04:59:33;;;;;;;3.70;1.73;;;-1.70;99.90;;;;;;4961731;28;20046;-64
2023/03/11 05:02:00;;;;;;;4.43;1.95;;;-1.70;99.90;;;;;;4960118;28;20050;-65
2023/03/11 05:04:27;;;;;;;3.10;1.60;;;-1.70;99.90;;;;;;4958904;28;20147;-65
2023/03/11 05:06:54;;;;;;;4.57;1.55;;;-1.70;99.90;;;;;;4961628;28;20074;-63
2023/03/11 05:09:23;;;;;;;2.85;2.10;;;-1.70;99.90;;;;;;4960846;28;21126;-64
2023/03/11 05:11:50;;;;;;;3.35;1.55;;;-1.70;99.90;;;;;;4958420;28;20050;-66
2023/03/11 05:14:19;;;;;;;4.32;1.60;;;-1.70;99.90;;;;;;4958150;28;20054;-65
2023/03/11 05:16:50;;;;;;;3.95;1.75;;;-1.70;99.90;;;;;;4958765;28;20061;-65
2023/03/11 05:19:35;;;;;;;7.00;2.33;;;-1.70;99.90;;;;;;4959156;28;20054;-65
2023/03/11 05:22:09;;;;;;;4.85;2.47;;;-1.70;99.90;;;;;;4957281;28;20055;-64
2023/03/11 05:24:36;;;;;;;9.30;2.63;;;-1.60;99.90;;;;;;4961416;28;20654;-66
2023/03/11 05:27:04;;;;;;;8.98;2.67;;;-1.60;99.90;;;;;;4960777;28;20055;-66
2023/03/11 05:29:32;;;;;;;7.35;2.33;;;-1.60;99.90;;;;;;4993376;28;20054;-64
2023/03/11 05:31:59;;;;;;;6.60;1.85;;;-1.60;99.90;;;;;;4959438;28;20086;-66
2023/03/11 05:34:26;;;;;;;5.55;1.70;;;-1.60;99.90;;;;;;4958996;28;20149;-65
2023/03/11 05:36:53;;;;;;;5.32;2.13;;;-1.50;99.90;;;;;;4959713;28;20157;-63
2023/03/11 05:39:21;;;;;;;3.92;1.55;;;-1.50;99.90;;;;;;4961346;28;20062;-64
2023/03/11 05:41:48;;;;;;;9.73;1.73;;;-1.50;99.90;;;;;;4959319;28;20066;-66
2023/03/11 05:44:15;;;;;;;6.38;1.95;;;-1.50;99.90;;;;;;4958679;28;20064;-64
2023/03/11 05:46:42;;;;;;;1.88;1.52;;;-1.50;99.90;;;;;;4960507;28;20142;-64
2023/03/11 05:49:09;;;;;;;2.72;1.85;;;-1.40;99.90;;;;;;4960331;28;20062;-66
2023/03/11 05:51:36;;;;;;;5.05;2.00;;;-1.40;99.90;;;;;;4959936;28;20058;-66
2023/03/11 05:54:06;;;;;;;1.88;1.42;;;-1.40;99.90;;;;;;4957894;28;20121;-64
2023/03/11 05:56:36;;;;;;;3.60;1.55;;;-1.40;99.90;;;;;;4959752;28;21398;-64
2023/03/11 05:59:04;;;;;;;4.38;1.83;;;-1.30;99.90;;;;;;4961272;28;20575;-63
2023/03/11 06:01:34;;;;;;;6.88;1.60;;;-1.30;99.90;;;;;;4992266;28;20869;-66
2023/03/11 06:04:01;;;;;;;2.60;1.25;;;-1.30;99.90;;;;;;4959298;28;20558;-64
2023/03/11 06:06:29;;;;;;;3.17;1.50;;;-1.30;99.90;;;;;;4990544;28;20078;-66
2023/03/11 06:08:56;;;;;;;4.50;1.92;;;-1.20;99.90;;;;;;4958885;28;20645;-63
2023/03/11 06:11:26;;;;;;;1.13;1.02;;;-1.20;99.90;;;;;;4959503;28;20058;-63
2023/03/11 06:13:55;;;;;;;4.57;1.40;;;-1.20;99.90;;;;;;4958812;28;20222;-64
2023/03/11 06:16:24;;;;;;;2.67;1.30;;;-1.20;99.90;;;;;;4957761;28;20381;-64
2023/03/11 06:18:53;;;;;;;1.50;1.20;;;-1.10;99.90;;;;;;4958782;28;20073;-63
2023/03/11 06:21:22;;;;;;;2.88;1.50;;;-1.10;99.90;;;;;;4960059;28;20057;-66
2023/03/11 06:23:49;;;;;;;5.90;1.88;;;-1.10;99.90;;;;;;4959741;28;20050;-66
2023/03/11 06:26:20;;;;;;;2.65;1.45;;;-1.10;99.90;;;;;;4957010;28;20047;-64
2023/03/11 06:28:47;;;;;;;0.73;0.70;;;-1.00;99.90;;;;;;4989868;28;20496;-66
2023/03/11 06:31:21;;;;;;;12.55;1.77;;;-1.00;99.90;;;;;;4990822;28;20519;-66
2023/03/11 06:33:48;;;;;;;3.17;1.30;;;-1.00;99.90;;;;;;4959295;28;20070;-66
2023/03/11 06:36:17;;;;;;;2.65;1.50;;;-1.00;99.90;;;;;;4959713;28;20046;-64
2023/03/11 06:38:45;;;;;;;4.80;1.40;;;-1.00;99.90;;;;;;4957681;28;20146;-64
2023/03/11 06:41:13;;;;;;;9.52;1.33;;;-1.00;99.90;;;;;;4959275;28;20051;-64
2023/03/11 06:43:40;;;;;;;6.32;2.08;;;-0.90;99.90;;;;;;4958627;28;20113;-65
2023/03/11 06:46:09;;;;;;;5.22;1.55;;;-0.90;99.90;;;;;;4956521;28;20109;-66
2023/03/11 06:48:37;;;;;;;5.88;1.75;;;-0.90;99.90;;;;;;4958947;28;20055;-66
2023/03/11 06:51:04;;;;;;;4.25;1.45;;;-0.80;99.90;;;;;;4959121;28;20114;-67
2023/03/11 06:53:32;;;;;;;3.85;2.20;;;-0.80;99.90;;;;;;4958534;28;20152;-64
2023/03/11 06:56:01;;;;;;;2.80;1.20;;;-0.80;99.90;;;;;;4956231;28;20047;-65
2023/03/11 06:58:30;;;;;;;2.65;1.50;;;-0.70;99.90;;;;;;4956565;28;20051;-67
2023/03/11 07:01:02;;;;;;;1.38;1.10;;;-0.80;99.90;;;;;;4959089;28;20055;-63
2023/03/11 07:03:29;;;;;;;6.13;2.25;;;-0.70;99.90;;;;;;4960913;28;20056;-65
2023/03/11 07:05:57;;;;;;;6.88;1.80;;;-0.70;99.90;;;;;;4959458;28;20090;-67
2023/03/11 07:08:24;;;;;;;5.78;1.38;;;-0.70;99.90;;;;;;4956822;28;20051;-65
2023/03/11 07:11:06;;;;;;;1.92;1.05;;;-0.70;99.90;;;;;;4955235;28;20066;-66
2023/03/11 07:13:35;;;;;;;5.10;1.50;;;-0.60;99.90;;;;;;4957521;28;20051;-66
2023/03/11 07:16:10;;;;;;;2.88;1.63;;;-0.60;99.90;;;;;;4973351;28;20051;-67
2023/03/11 07:18:38;;;;;;;5.85;1.48;;;-0.60;99.90;;;;;;4957569;28;20712;-64
2023/03/11 07:21:08;;;;;;;4.80;1.50;;;-0.60;99.90;;;;;;4962518;28;20662;-66
2023/03/11 07:23:38;;;;;;;4.30;1.55;;;-0.50;99.90;;;;;;4962737;28;20061;-64
2023/03/11 07:26:09;;;;;;;2.85;1.30;;;-0.50;99.90;;;;;;4961252;28;20637;-63
2023/03/11 07:28:36;;;;;;;3.20;1.52;;;-0.40;99.90;;;;;;4960812;28;20188;-63
2023/03/11 07:31:12;;;;;;;1.95;1.25;;;-0.40;99.90;;;;;;4964398;28;20173;-64
2023/03/11 07:33:40;;;;;;;5.82;1.52;;;-0.30;99.90;;;;;;4963160;28;20162;-65
2023/03/11 07:36:12;;;;;;;5.07;1.52;;;-0.20;99.90;;;;;;4962401;28;20051;-64
2023/03/11 07:38:40;;;;;;;11.25;1.75;;;-0.20;99.90;;;;;;4962145;28;20122;-66
2023/03/11 07:41:10;;;;;;;3.70;1.17;;;-0.10;99.90;;;;;;4962064;28;20039;-64
2023/03/11 07:43:37;;;;;;;3.92;1.42;;;-0.10;99.90;;;;;;4961504;28;20062;-64
2023/03/11 07:46:08;;;;;;;7.38;1.38;;;0.00;99.90;;;;;;4992277;28;20133;-64
2023/03/11 07:48:37;;;;;;;2.08;1.63;;;0.00;99.90;;;;;;4963837;28;20562;-64
2023/03/11 07:51:06;;;;;;;2.40;1.50;;;0.10;99.90;;;;;;4962372;28;20544;-65
2023/03/11 07:53:33;;;;;;;1.73;1.27;;;0.10;99.90;;;;;;4963188;28;20062;-66
2023/03/11 07:56:02;;;;;;;6.60;2.20;;;0.20;99.90;;;;;;4963400;28;20055;-66
2023/03/11 07:58:29;;;;;;;3.92;1.77;;;0.30;99.90;;;;;;4961089;28;21379;-66
2023/03/11 08:01:01;;;;;;;5.60;1.95;;;0.30;99.90;;;;;;4960266;28;20051;-66
2023/03/11 08:03:28;;;;;;;3.60;1.50;;;0.40;99.90;;;;;;4994076;28;20468;-65
2023/03/11 08:05:55;;;;;;;3.22;1.23;;;0.50;99.90;;;;;;4962497;28;20712;-64
2023/03/11 08:08:22;;;;;;;3.25;1.10;;;0.60;99.90;;;;;;4961222;28;23535;-65
2023/03/11 08:10:49;;;;;;;2.28;1.52;;;0.60;99.90;;;;;;4962437;28;20046;-66
2023/03/11 08:13:16;;;;;;;2.38;1.10;;;0.60;99.90;;;;;;4961286;28;20925;-67
2023/03/11 08:15:43;;;;;;;2.92;1.40;;;0.60;99.90;;;;;;4959665;28;20547;-66
2023/03/11 08:18:09;;;;;;;5.10;2.55;;;0.60;99.90;;;;;;4961596;28;20058;-64
2023/03/11 08:20:37;;;;;;;4.13;1.13;;;0.70;99.90;;;;;;4962448;28;20425;-64
2023/03/11 08:23:04;;;;;;;0.77;0.77;;;0.60;99.90;;;;;;4962731;28;20061;-65
2023/03/11 08:25:31;;;;;;;5.32;1.23;;;0.60;99.90;;;;;;4961707;28;20141;-64
2023/03/11 08:27:58;;;;;;;3.08;1.27;;;0.70;99.90;;;;;;4960816;28;20042;-65
2023/03/11 08:30:25;;;;;;;3.83;1.13;;;0.60;99.90;;;;;;4958986;28;20058;-66
2023/03/11 08:32:52;;;;;;;3.70;1.65;;;0.60;99.90;;;;;;4958778;28;20066;-67
2023/03/11 08:35:19;;;;;;;1.77;1.63;;;0.50;99.90;;;;;;4960952;28;20735;-66
2023/03/11 08:37:46;;;;;;;2.50;1.80;;;0.60;99.90;;;;;;4962932;28;20081;-64
2023/03/11 08:40:13;;;;;;;1.73;1.35;;;0.50;99.90;;;;;;4960536;28;20046;-65
2023/03/11 08:42:40;;;;;;;1.52;0.93;;;0.60;99.90;;;;;;4962703;28;20051;-66
2023/03/11 08:45:07;;;;;;;1.48;0.75;;;0.60;99.90;;;;;;4961105;28;20055;-67
2023/03/11 08:47:36;;;;;;;1.73;1.20;;;0.60;99.90;;;;;;4958706;28;20062;-66
2023/03/11 08:50:06;;;;;;;1.27;1.13;;;0.60;99.90;;;;;;4959825;28;20054;-66
2023/03/11 08:52:33;;;;;;;2.67;0.93;;;0.70;99.90;;;;;;4961418;28;20059;-66
2023/03/11 08:55:00;;;;;;;5.07;1.08;;;0.70;99.90;;;;;;4962462;28;20050;-65
2023/03/11 08:57:27;;;;;;;2.65;1.40;;;0.70;99.90;;;;;;4960982;28;20047;-65
2023/03/11 08:59:57;;;;;;;1.70;0.90;;;0.70;99.90;;;;;;4961937;28;20647;-67
2023/03/11 09:02:26;;;;;;;3.97;1.05;;;0.80;99.90;;;;;;4958656;28;20505;-66
2023/03/11 09:04:53;;;;;;;2.80;1.42;;;0.70;99.90;;;;;;4960340;28;20065;-64
2023/03/11 09:07:20;;;;;;;3.72;0.98;;;0.80;99.90;;;;;;4960791;28;20051;-64
2023/03/11 09:09:47;;;;;;;4.50;1.40;;;0.90;99.90;;;;;;4961433;28;20154;-65
2023/03/11 09:12:14;;;;;;;2.67;0.80;;;0.90;99.90;;;;;;4957921;28;20051;-67
2023/03/11 09:14:41;;;;;;;2.53;0.90;;;0.90;99.90;;;;;;4962526;28;20047;-67
2023/03/11 09:17:10;;;;;;;5.05;1.23;;;0.80;99.90;;;;;;4959119;28;20066;-64
2023/03/11 09:19:37;;;;;;;2.17;0.98;;;0.80;99.90;;;;;;4959283;28;20050;-65
2023/03/11 09:22:05;;;;;;;1.85;0.70;;;0.80;99.90;;;;;;4961180;28;20053;-65
2023/03/11 09:24:33;;;;;;;2.92;0.77;;;0.80;99.90;;;;;;4962319;28;20070;-63
2023/03/11 09:27:01;;;;;;;2.85;1.52;;;0.90;99.90;;;;;;4962298;28;20047;-65
2023/03/11 09:29:28;;;;;;;0.65;0.35;;;0.90;99.90;;;;;;4961631;28;20051;-67
2023/03/11 09:31:55;;;;;;;2.17;1.25;;;1.00;99.90;;;;;;4961414;28;20400;-66
2023/03/11 09:34:22;;;;;;;1.27;0.65;;;1.10;99.90;;;;;;4959068;28;20062;-64
2023/03/11 09:36:48;;;;;;;3.65;0.60;;;1.10;99.90;;;;;;4961353;28;20057;-64
2023/03/11 09:39:15;;;;;;;3.60;1.30;;;1.10;99.90;;;;;;4961374;28;20141;-66
2023/03/11 09:41:45;;;;;;;1.80;1.23;;;1.20;99.90;;;;;;4959452;28;20827;-67
2023/03/11 09:44:36;;;;;;;4.53;0.80;;;1.20;99.90;;;;;;4959006;28;20433;-64
2023/03/11 09:47:21;;;;;;;1.40;0.65;;;1.30;99.90;;;;;;4960268;28;20076;-66
2023/03/11 09:49:57;;;;;;;1.95;0.50;;;1.30;99.90;;;;;;4960151;28;20078;-66
2023/03/11 09:52:32;;;;;;;1.75;0.80;;;1.40;99.90;;;;;;4956296;28;20062;-66
2023/03/11 09:55:02;;;;;;;1.75;1.17;;;1.50;99.90;;;;;;4960666;28;20133;-65
2023/03/11 09:57:33;;;;;;;1.00;0.82;;;1.60;99.90;;;;;;4959406;28;20053;-64
2023/03/11 10:00:04;;;;;;;5.18;0.82;;;1.60;99.90;;;;;;4959444;28;20046;-64
2023/03/11 10:02:39;;;;;;;5.53;1.10;;;1.50;99.90;;;;;;4957878;28;20051;-65
2023/03/11 10:05:15;;;;;;;8.07;1.20;;;1.40;99.90;;;;;;4959826;28;20130;-66
2023/03/11 10:07:48;;;;;;;1.38;0.57;;;1.30;99.90;;;;;;4957638;28;20121;-65
2023/03/11 10:10:16;;;;;;;2.58;1.10;;;1.20;99.90;;;;;;4957483;28;20198;-65
2023/03/11 10:13:13;;;;;;;2.33;1.33;;;1.10;99.90;;;;;;4960666;28;20047;-66
2023/03/11 10:16:03;;;;;;;3.72;0.70;;;1.20;99.90;;;;;;4960416;28;20134;-64
2023/03/11 10:18:33;;;;;;;2.72;1.33;;;1.20;99.90;;;;;;4959262;28;20061;-66
2023/03/11 10:21:05;;;;;;;5.53;0.95;;;1.20;99.90;;;;;;4960871;28;20077;-65
2023/03/11 10:24:02;;;;;;;7.88;0.95;;;1.30;99.90;;;;;;4956761;28;20042;-66
2023/03/11 10:26:32;;;;;;;1.30;0.80;;;1.20;99.90;;;;;;4934418;28;20074;-66
2023/03/11 10:29:17;;;;;;;3.45;0.57;;;1.20;99.90;;;;;;4958678;28;20955;-65
2023/03/11 10:32:20;;;;;;;3.45;0.82;;;1.10;99.90;;;;;;4958967;28;20512;-66
2023/03/11 10:35:10;;;;;;;1.50;0.77;;;1.00;99.90;;;;;;4957999;28;20054;-65
2023/03/11 10:37:43;;;;;;;5.63;2.43;;;1.00;99.90;;;;;;4959122;28;20125;-64
2023/03/11 10:40:35;;;;;;;1.50;0.73;;;0.90;99.90;;;;;;4955079;28;20066;-66
2023/03/11 10:43:09;;;;;;;2.05;1.10;;;1.00;99.90;;;;;;4960267;28;20054;-64
2023/03/11 10:45:40;;;;;;;6.18;1.40;;;0.90;99.90;;;;;;4960678;28;20059;-65
2023/03/11 10:48:11;;;;;;;2.85;1.10;;;0.80;99.90;;;;;;4958394;28;20089;-64
2023/03/11 10:51:01;;;;;;;1.77;0.70;;;0.70;99.90;;;;;;4960940;28;20046;-68
2023/03/11 10:53:28;;;;;;;4.13;0.95;;;0.60;99.90;;;;;;4959191;28;20042;-66
2023/03/11 10:55:58;;;;;;;2.33;0.82;;;0.50;99.90;;;;;;4960986;28;20069;-64
2023/03/11 10:58:29;;;;;;;1.90;0.90;;;0.50;99.90;;;;;;4958420;28;21591;-64
2023/03/11 11:01:15;;;;;;;2.72;0.80;;;0.40;99.90;;;;;;4961114;28;20047;-65
2023/03/11 11:03:48;;;;;;;1.40;0.90;;;0.30;99.90;;;;;;4960206;28;20929;-65
2023/03/11 11:06:28;;;;;;;1.65;1.00;;;0.40;99.90;;;;;;4957687;28;20157;-65
2023/03/11 11:09:08;;;;;;;3.60;0.88;;;0.40;99.90;;;;;;4960493;28;20145;-65
2023/03/11 11:11:35;;;;;;;2.75;0.88;;;0.50;99.90;;;;;;4958585;28;20043;-65
2023/03/11 11:14:02;;;;;;;1.45;0.75;;;0.40;99.90;;;;;;4959896;28;20090;-66
2023/03/11 11:17:14;;;;;;;1.10;0.65;;;0.40;99.90;;;;;;4944381;28;20061;-65
2023/03/11 11:19:47;;;;;;;1.88;1.30;;;0.40;99.90;;;;;;4959966;28;20046;-64
2023/03/11 11:22:21;;;;;;;1.65;0.52;;;0.30;99.90;;;;;;4955455;28;20090;-64
2023/03/11 11:24:50;;;;;;;2.75;1.55;;;0.30;99.90;;;;;;4957514;28;20050;-64
2023/03/11 11:27:28;;;;;;;1.40;0.68;;;0.30;99.90;;;;;;4957448;28;20093;-65
2023/03/11 11:30:10;;;;;;;1.65;1.17;;;0.20;99.90;;;;;;4956370;28;20051;-66
2023/03/11 11:32:37;;;;;;;2.35;1.00;;;0.20;99.90;;;;;;4955426;28;20133;-65
2023/03/11 11:35:10;;;;;;;1.50;0.98;;;0.30;99.90;;;;;;4956604;28;20159;-63
2023/03/11 11:37:41;;;;;;;2.42;1.10;;;0.30;99.90;;;;;;4957237;28;20285;-66
2023/03/11 11:40:14;;;;;;;5.07;1.25;;;0.30;99.90;;;;;;4951066;28;20062;-65
2023/03/11 11:43:12;;;;;;;1.80;1.15;;;0.30;99.90;;;;;;4955007;28;20054;-65
2023/03/11 11:45:45;;;;;;;3.10;1.30;;;0.30;99.90;;;;;;4957962;28;20059;-65
2023/03/11 11:48:51;;;;;;;1.15;0.95;;;0.10;99.90;;;;;;4952597;28;20050;-64
2023/03/11 11:51:26;;;;;;;4.18;1.38;;;0.20;99.90;;;;;;4931698;28;20051;-66
2023/03/11 11:54:22;;;;;;;1.75;0.90;;;0.20;99.90;;;;;;4957520;28;20105;-65
2023/03/11 11:56:49;;;;;;;4.82;1.42;;;0.20;99.90;;;;;;4950770;28;20055;-67
2023/03/11 11:59:18;;;;;;;3.80;1.23;;;0.20;99.90;;;;;;4956645;28;20712;-66
2023/03/11 12:01:58;;;;;;;2.10;0.80;;;0.30;99.90;;;;;;4956616;28;20047;-67
2023/03/11 12:04:28;;;;;;;1.63;1.13;;;0.20;99.90;;;;;;4954352;28;20061;-65
2023/03/11 12:07:09;;;;;;;2.75;1.20;;;0.10;99.90;;;;;;4955846;28;20520;-66
2023/03/11 12:09:59;;;;;;;1.20;0.68;;;0.20;99.90;;;;;;4959901;28;20046;-67
2023/03/11 12:13:04;;;;;;;1.00;0.77;;;0.10;99.90;;;;;;4957174;28;20161;-66
2023/03/11 12:15:40;;;;;;;4.10;1.33;;;0.20;99.90;;;;;;4960407;28;20050;-65
2023/03/11 12:18:20;;;;;;;1.48;0.60;;;0.30;99.90;;;;;;4960096;28;20568;-65
2023/03/11 12:20:53;;;;;;;1.38;0.60;;;0.40;99.90;;;;;;4960587;28;20176;-66
2023/03/11 12:23:38;;;;;;;6.10;0.80;;;0.40;99.90;;;;;;4960377;28;20137;-66
2023/03/11 12:26:21;;;;;;;1.77;0.90;;;0.40;99.90;;;;;;4959403;28;20138;-67
2023/03/11 12:28:57;;;;;;;1.92;0.93;;;0.60;99.90;;;;;;4958198;28;20392;-66
2023/03/11 12:31:27;;;;;;;1.88;0.98;;;0.50;99.90;;;;;;4962594;28;20061;-65
2023/03/11 12:34:01;;;;;;;3.25;1.15;;;0.60;99.90;;;;;;4960789;28;20054;-70
2023/03/11 12:36:34;;;;;;;5.00;1.27;;;0.60;99.90;;;;;;4960085;28;20053;-65
2023/03/11 12:39:04;;;;;;;2.35;0.90;;;0.60;99.90;;;;;;4962179;28;20092;-65
2023/03/11 12:41:38;;;;;;;2.53;1.15;;;0.70;99.90;;;;;;4961222;28;20050;-65
2023/03/11 12:44:28;;;;;;;2.28;0.98;;;0.70;99.90;;;;;;4960291;28;20051;-68
2023/03/11 12:46:58;;;;;;;4.07;1.13;;;0.70;99.90;;;;;;4961063;28;20062;-68
2023/03/11 12:49:37;;;;;;;2.42;1.13;;;0.80;99.90;;;;;;4960843;28;21274;-65
2023/03/11 12:52:10;;;;;;;1.23;0.60;;;0.90;99.90;;;;;;4959815;28;20599;-70
2023/03/11 12:54:44;;;;;;;4.53;1.10;;;0.90;99.90;;;;;;4956791;28;20055;-67
2023/03/11 12:57:17;;;;;;;3.58;0.90;;;1.00;99.90;;;;;;4954158;28;20165;-66
2023/03/11 13:00:11;;;;;;;4.10;0.93;;;1.00;99.90;;;;;;4956018;28;20940;-65
2023/03/11 13:02:55;;;;;;;1.30;0.65;;;1.00;99.90;;;;;;4955338;28;20057;-64
2023/03/11 13:05:28;;;;;;;2.50;0.43;;;1.20;99.90;;;;;;4962678;28;20061;-66
2023/03/11 13:08:17;;;;;;;2.75;0.50;;;1.10;99.90;;;;;;4961151;28;20054;-71
2023/03/11 13:10:46;;;;;;;3.70;0.90;;;1.00;99.90;;;;;;4960145;28;20080;-67